sensor_id;sensor_type;location;lat;lon;timestamp;temperature;humidity
19952;DHT22;10137;49.406;19.484;2023-03-23T00:01:28;5.30;99.90
19952;DHT22;10137;49.406;19.484;2023-03-23T00:03:58;5.30;99.90
19952;DHT22;10137;49.406;19.484;2023-03-23T00:06:28;5.40;99.90
19952;DHT22;10137;49.406;19.484;2023-03-23T00:09:01;5.40;99.90
19952;DHT22;10137;49.406;19.484;2023-03-23T00:11:31;5.30;99.90
19952;DHT22;10137;49.406;19.484;2023-03-23T00:14:00;5.40;99.90
19952;DHT22;10137;49.406;19.484;2023-03-23T00:16:32;5.30;99.90
19952;DHT22;10137;49.406;19.484;2023-03-23T00:19:06;5.30;99.90
19952;DHT22;10137;49.406;19.484;2023-03-23T00:21:36;5.20;99.90
19952;DHT22;10137;49.406;19.484;2023-03-23T00:24:08;5.10;99.90
19952;DHT22;10137;49.406;19.484;2023-03-23T00:26:39;5.20;99.90
19952;DHT22;10137;49.406;19.484;2023-03-23T00:29:12;5.20;99.90
19952;DHT22;10137;49.406;19.484;2023-03-23T00:31:41;5.20;99.90
19952;DHT22;10137;49.406;19.484;2023-03-23T00:34:15;5.20;99.90
19952;DHT22;10137;49.406;19.484;2023-03-23T00:36:46;5.00;99.90
19952;DHT22;10137;49.406;19.484;2023-03-23T00:39:24;5.10;99.90
19952;DHT22;10137;49.406;19.484;2023-03-23T00:41:55;5.00;99.90
19952;DHT22;10137;49.406;19.484;2023-03-23T00:44:27;5.00;99.90
19952;DHT22;10137;49.406;19.484;2023-03-23T00:46:59;4.90;99.90
19952;DHT22;10137;49.406;19.484;2023-03-23T00:49:27;4.80;99.90
19952;DHT22;10137;49.406;19.484;2023-03-23T00:52:05;4.70;99.90
19952;DHT22;10137;49.406;19.484;2023-03-23T00:54:34;4.70;99.90
19952;DHT22;10137;49.406;19.484;2023-03-23T00:57:05;4.70;99.90
19952;DHT22;10137;49.406;19.484;2023-03-23T00:59:33;4.60;99.90
19952;DHT22;10137;49.406;19.484;2023-03-23T01:02:02;4.60;99.90
19952;DHT22;10137;49.406;19.484;2023-03-23T01:04:30;4.80;99.90
19952;DHT22;10137;49.406;19.484;2023-03-23T01:06:57;4.90;99.90
19952;DHT22;10137;49.406;19.484;2023-03-23T01:09:26;4.90;99.90
19952;DHT22;10137;49.406;19.484;2023-03-23T01:12:04;5.00;99.90
19952;DHT22;10137;49.406;19.484;2023-03-23T01:14:31;4.90;99.90
19952;DHT22;10137;49.406;19.484;2023-03-23T01:17:00;4.90;99.90
19952;DHT22;10137;49.406;19.484;2023-03-23T01:19:28;4.90;99.90
19952;DHT22;10137;49.406;19.484;2023-03-23T01:21:56;4.90;99.90
19952;DHT22;10137;49.406;19.484;2023-03-23T01:24:24;4.90;99.90
19952;DHT22;10137;49.406;19.484;2023-03-23T01:26:52;4.80;99.90
19952;DHT22;10137;49.406;19.484;2023-03-23T01:29:22;4.80;99.90
19952;DHT22;10137;49.406;19.484;2023-03-23T01:31:49;4.90;99.90
19952;DHT22;10137;49.406;19.484;2023-03-23T01:34:17;4.80;99.90
19952;DHT22;10137;49.406;19.484;2023-03-23T01:36:45;4.80;99.90
19952;DHT22;10137;49.406;19.484;2023-03-23T01:39:13;4.80;99.90
19952;DHT22;10137;49.406;19.484;2023-03-23T01:41:42;4.80;99.90
19952;DHT22;10137;49.406;19.484;2023-03-23T01:47:14;4.80;99.90
19952;DHT22;10137;49.406;19.484;2023-03-23T01:49:45;4.80;99.90
19952;DHT22;10137;49.406;19.484;2023-03-23T01:52:17;4.80;99.90
19952;DHT22;10137;49.406;19.484;2023-03-23T01:54:48;4.80;99.90
19952;DHT22;10137;49.406;19.484;2023-03-23T01:57:19;4.80;99.90
19952;DHT22;10137;49.406;19.484;2023-03-23T01:59:50;4.80;99.90
19952;DHT22;10137;49.406;19.484;2023-03-23T02:02:22;4.70;99.90
19952;DHT22;10137;49.406;19.484;2023-03-23T02:04:51;4.80;99.90
19952;DHT22;10137;49.406;19.484;2023-03-23T02:07:20;4.80;99.90
19952;DHT22;10137;49.406;19.484;2023-03-23T02:09:50;4.80;99.90
19952;DHT22;10137;49.406;19.484;2023-03-23T02:12:19;4.80;99.90
19952;DHT22;10137;49.406;19.484;2023-03-23T02:14:47;4.80;99.90
19952;DHT22;10137;49.406;19.484;2023-03-23T02:17:24;4.70;99.90
19952;DHT22;10137;49.406;19.484;2023-03-23T02:20:17;4.60;99.90
19952;DHT22;10137;49.406;19.484;2023-03-23T02:26:07;4.50;99.90
19952;DHT22;10137;49.406;19.484;2023-03-23T02:29:02;4.60;99.90
19952;DHT22;10137;49.406;19.484;2023-03-23T02:31:44;4.60;99.90
19952;DHT22;10137;49.406;19.484;2023-03-23T02:34:18;4.60;99.90
19952;DHT22;10137;49.406;19.484;2023-03-23T02:36:53;4.60;99.90
19952;DHT22;10137;49.406;19.484;2023-03-23T02:39:30;4.60;99.90
19952;DHT22;10137;49.406;19.484;2023-03-23T02:42:04;4.50;99.90
19952;DHT22;10137;49.406;19.484;2023-03-23T02:44:35;4.40;99.90
19952;DHT22;10137;49.406;19.484;2023-03-23T02:47:09;4.30;99.90
19952;DHT22;10137;49.406;19.484;2023-03-23T02:49:42;4.30;99.90
19952;DHT22;10137;49.406;19.484;2023-03-23T02:52:16;4.20;99.90
19952;DHT22;10137;49.406;19.484;2023-03-23T02:54:48;4.20;99.90
19952;DHT22;10137;49.406;19.484;2023-03-23T02:57:17;4.10;99.90
19952;DHT22;10137;49.406;19.484;2023-03-23T02:59:47;4.10;99.90
19952;DHT22;10137;49.406;19.484;2023-03-23T03:02:21;4.00;99.90
19952;DHT22;10137;49.406;19.484;2023-03-23T03:04:57;4.10;99.90
19952;DHT22;10137;49.406;19.484;2023-03-23T03:07:45;4.20;99.90
19952;DHT22;10137;49.406;19.484;2023-03-23T03:10:39;4.30;99.90
19952;DHT22;10137;49.406;19.484;2023-03-23T03:13:14;4.30;99.90
19952;DHT22;10137;49.406;19.484;2023-03-23T03:15:48;4.30;99.90
19952;DHT22;10137;49.406;19.484;2023-03-23T03:18:24;4.40;99.90
19952;DHT22;10137;49.406;19.484;2023-03-23T03:21:00;4.50;99.90
19952;DHT22;10137;49.406;19.484;2023-03-23T03:23:31;4.50;99.90
19952;DHT22;10137;49.406;19.484;2023-03-23T03:26:04;4.60;99.90
19952;DHT22;10137;49.406;19.484;2023-03-23T03:28:36;4.50;99.90
19952;DHT22;10137;49.406;19.484;2023-03-23T03:31:04;4.60;99.90
19952;DHT22;10137;49.406;19.484;2023-03-23T03:33:34;4.50;99.90
19952;DHT22;10137;49.406;19.484;2023-03-23T03:36:05;4.40;99.90
19952;DHT22;10137;49.406;19.484;2023-03-23T03:38:46;4.40;99.90
19952;DHT22;10137;49.406;19.484;2023-03-23T03:41:15;4.40;99.90
19952;DHT22;10137;49.406;19.484;2023-03-23T03:43:44;4.40;99.90
19952;DHT22;10137;49.406;19.484;2023-03-23T03:46:12;4.40;99.90
19952;DHT22;10137;49.406;19.484;2023-03-23T03:48:40;4.50;99.90
19952;DHT22;10137;49.406;19.484;2023-03-23T03:51:10;4.50;99.90
19952;DHT22;10137;49.406;19.484;2023-03-23T03:53:38;4.60;99.90
19952;DHT22;10137;49.406;19.484;2023-03-23T03:56:07;4.60;99.90
19952;DHT22;10137;49.406;19.484;2023-03-23T03:58:35;4.50;99.90
19952;DHT22;10137;49.406;19.484;2023-03-23T04:01:03;4.40;99.90
19952;DHT22;10137;49.406;19.484;2023-03-23T04:03:31;4.40;99.90
19952;DHT22;10137;49.406;19.484;2023-03-23T04:05:59;4.40;99.90
19952;DHT22;10137;49.406;19.484;2023-03-23T04:08:29;4.20;99.90
19952;DHT22;10137;49.406;19.484;2023-03-23T04:10:58;4.00;99.90
19952;DHT22;10137;49.406;19.484;2023-03-23T04:13:26;4.10;99.90
19952;DHT22;10137;49.406;19.484;2023-03-23T04:15:54;4.10;99.90
19952;DHT22;10137;49.406;19.484;2023-03-23T04:18:23;4.10;99.90
19952;DHT22;10137;49.406;19.484;2023-03-23T04:20:55;4.10;99.90
19952;DHT22;10137;49.406;19.484;2023-03-23T04:23:27;4.10;99.90
19952;DHT22;10137;49.406;19.484;2023-03-23T04:26:04;3.90;99.90
19952;DHT22;10137;49.406;19.484;2023-03-23T04:28:32;3.90;99.90
19952;DHT22;10137;49.406;19.484;2023-03-23T04:31:00;3.90;99.90
19952;DHT22;10137;49.406;19.484;2023-03-23T04:33:29;3.80;99.90
19952;DHT22;10137;49.406;19.484;2023-03-23T04:36:00;3.90;99.90
19952;DHT22;10137;49.406;19.484;2023-03-23T04:38:29;4.00;99.90
19952;DHT22;10137;49.406;19.484;2023-03-23T04:41:01;4.00;99.90
19952;DHT22;10137;49.406;19.484;2023-03-23T04:43:29;4.00;99.90
19952;DHT22;10137;49.406;19.484;2023-03-23T04:45:59;4.10;99.90
19952;DHT22;10137;49.406;19.484;2023-03-23T04:48:35;4.20;99.90
19952;DHT22;10137;49.406;19.484;2023-03-23T04:51:08;4.20;99.90
19952;DHT22;10137;49.406;19.484;2023-03-23T04:53:38;4.30;99.90
19952;DHT22;10137;49.406;19.484;2023-03-23T04:56:09;4.20;99.90
19952;DHT22;10137;49.406;19.484;2023-03-23T04:58:39;4.30;99.90
19952;DHT22;10137;49.406;19.484;2023-03-23T05:01:08;4.30;99.90
19952;DHT22;10137;49.406;19.484;2023-03-23T05:03:36;4.40;99.90
19952;DHT22;10137;49.406;19.484;2023-03-23T05:06:06;4.40;99.90
19952;DHT22;10137;49.406;19.484;2023-03-23T05:08:34;4.40;99.90
19952;DHT22;10137;49.406;19.484;2023-03-23T05:11:06;4.50;99.90
19952;DHT22;10137;49.406;19.484;2023-03-23T05:13:36;4.60;99.90
19952;DHT22;10137;49.406;19.484;2023-03-23T05:16:06;4.90;99.90
19952;DHT22;10137;49.406;19.484;2023-03-23T05:18:35;5.10;99.90
19952;DHT22;10137;49.406;19.484;2023-03-23T05:21:03;5.20;99.90
19952;DHT22;10137;49.406;19.484;2023-03-23T05:23:30;5.50;99.90
19952;DHT22;10137;49.406;19.484;2023-03-23T05:26:00;5.70;99.90
19952;DHT22;10137;49.406;19.484;2023-03-23T05:28:31;5.90;99.90
19952;DHT22;10137;49.406;19.484;2023-03-23T05:31:05;6.00;99.90
19952;DHT22;10137;49.406;19.484;2023-03-23T05:33:33;6.00;99.90
19952;DHT22;10137;49.406;19.484;2023-03-23T05:36:01;5.90;99.90
19952;DHT22;10137;49.406;19.484;2023-03-23T05:38:30;5.90;99.90
19952;DHT22;10137;49.406;19.484;2023-03-23T05:41:01;5.90;99.90
19952;DHT22;10137;49.406;19.484;2023-03-23T05:43:30;6.10;99.90
19952;DHT22;10137;49.406;19.484;2023-03-23T05:45:58;6.10;99.90
19952;DHT22;10137;49.406;19.484;2023-03-23T05:48:28;6.10;99.90
19952;DHT22;10137;49.406;19.484;2023-03-23T05:50:56;6.10;99.90
19952;DHT22;10137;49.406;19.484;2023-03-23T05:53:27;6.20;99.90
19952;DHT22;10137;49.406;19.484;2023-03-23T05:55:58;6.30;99.90
19952;DHT22;10137;49.406;19.484;2023-03-23T05:58:27;6.30;99.90
19952;DHT22;10137;49.406;19.484;2023-03-23T06:00:57;6.40;99.90
19952;DHT22;10137;49.406;19.484;2023-03-23T06:03:30;6.40;99.90
19952;DHT22;10137;49.406;19.484;2023-03-23T06:05:58;6.40;99.90
19952;DHT22;10137;49.406;19.484;2023-03-23T06:08:30;6.40;99.90
19952;DHT22;10137;49.406;19.484;2023-03-23T06:10:58;6.50;99.90
19952;DHT22;10137;49.406;19.484;2023-03-23T06:13:27;6.50;99.90
19952;DHT22;10137;49.406;19.484;2023-03-23T06:15:56;6.60;99.90
19952;DHT22;10137;49.406;19.484;2023-03-23T06:18:25;6.80;99.90
19952;DHT22;10137;49.406;19.484;2023-03-23T06:20:59;6.80;99.90
19952;DHT22;10137;49.406;19.484;2023-03-23T06:23:30;7.00;99.90
19952;DHT22;10137;49.406;19.484;2023-03-23T06:26:01;7.00;99.90
19952;DHT22;10137;49.406;19.484;2023-03-23T06:28:30;7.20;99.90
19952;DHT22;10137;49.406;19.484;2023-03-23T06:30:59;7.30;99.90
19952;DHT22;10137;49.406;19.484;2023-03-23T06:33:31;7.40;99.90
19952;DHT22;10137;49.406;19.484;2023-03-23T06:36:07;7.50;99.90
19952;DHT22;10137;49.406;19.484;2023-03-23T06:38:38;7.50;99.90
19952;DHT22;10137;49.406;19.484;2023-03-23T06:41:05;7.70;99.90
19952;DHT22;10137;49.406;19.484;2023-03-23T06:43:34;8.00;99.90
19952;DHT22;10137;49.406;19.484;2023-03-23T06:46:07;8.20;99.90
19952;DHT22;10137;49.406;19.484;2023-03-23T06:48:36;8.40;99.90
19952;DHT22;10137;49.406;19.484;2023-03-23T06:51:12;8.70;99.90
19952;DHT22;10137;49.406;19.484;2023-03-23T06:53:40;9.10;99.90
19952;DHT22;10137;49.406;19.484;2023-03-23T06:56:08;9.50;99.90
19952;DHT22;10137;49.406;19.484;2023-03-23T06:58:38;9.70;99.90
19952;DHT22;10137;49.406;19.484;2023-03-23T07:01:08;10.10;99.90
19952;DHT22;10137;49.406;19.484;2023-03-23T07:03:37;10.50;99.90
19952;DHT22;10137;49.406;19.484;2023-03-23T07:06:08;11.00;99.90
19952;DHT22;10137;49.406;19.484;2023-03-23T07:08:40;11.50;99.90
19952;DHT22;10137;49.406;19.484;2023-03-23T07:11:08;11.90;99.90
19952;DHT22;10137;49.406;19.484;2023-03-23T07:13:37;12.20;99.90
19952;DHT22;10137;49.406;19.484;2023-03-23T07:16:06;12.40;99.90
19952;DHT22;10137;49.406;19.484;2023-03-23T07:18:35;12.60;99.90
19952;DHT22;10137;49.406;19.484;2023-03-23T07:21:03;12.70;99.90
19952;DHT22;10137;49.406;19.484;2023-03-23T07:23:34;12.80;99.90
19952;DHT22;10137;49.406;19.484;2023-03-23T07:26:02;13.10;99.90
19952;DHT22;10137;49.406;19.484;2023-03-23T07:28:36;13.30;99.90
19952;DHT22;10137;49.406;19.484;2023-03-23T07:31:07;13.20;99.90
19952;DHT22;10137;49.406;19.484;2023-03-23T07:33:35;13.20;99.90
19952;DHT22;10137;49.406;19.484;2023-03-23T07:36:05;13.20;99.90
19952;DHT22;10137;49.406;19.484;2023-03-23T07:38:35;13.30;99.90
19952;DHT22;10137;49.406;19.484;2023-03-23T07:41:02;13.40;99.90
19952;DHT22;10137;49.406;19.484;2023-03-23T07:43:29;13.50;99.90
19952;DHT22;10137;49.406;19.484;2023-03-23T07:46:00;13.60;99.90
19952;DHT22;10137;49.406;19.484;2023-03-23T07:48:29;13.50;99.90
19952;DHT22;10137;49.406;19.484;2023-03-23T07:50:56;13.60;99.90
19952;DHT22;10137;49.406;19.484;2023-03-23T07:53:23;13.50;99.90
19952;DHT22;10137;49.406;19.484;2023-03-23T07:55:53;13.50;99.90
19952;DHT22;10137;49.406;19.484;2023-03-23T07:58:21;13.50;99.90
19952;DHT22;10137;49.406;19.484;2023-03-23T08:00:49;13.60;99.90
19952;DHT22;10137;49.406;19.484;2023-03-23T08:03:18;13.40;99.90
19952;DHT22;10137;49.406;19.484;2023-03-23T08:05:45;13.30;99.90
19952;DHT22;10137;49.406;19.484;2023-03-23T08:08:12;13.30;99.90
19952;DHT22;10137;49.406;19.484;2023-03-23T08:10:40;13.20;99.90
19952;DHT22;10137;49.406;19.484;2023-03-23T08:13:10;13.20;99.90
19952;DHT22;10137;49.406;19.484;2023-03-23T08:15:38;13.40;99.90
19952;DHT22;10137;49.406;19.484;2023-03-23T08:18:05;13.40;99.90
19952;DHT22;10137;49.406;19.484;2023-03-23T08:20:32;13.40;99.90
19952;DHT22;10137;49.406;19.484;2023-03-23T08:23:03;13.40;99.90
19952;DHT22;10137;49.406;19.484;2023-03-23T08:25:33;13.40;99.90
19952;DHT22;10137;49.406;19.484;2023-03-23T08:28:01;13.40;99.90
19952;DHT22;10137;49.406;19.484;2023-03-23T08:30:30;13.50;99.90
19952;DHT22;10137;49.406;19.484;2023-03-23T08:33:00;13.40;99.80
19952;DHT22;10137;49.406;19.484;2023-03-23T08:35:28;13.40;99.90
19952;DHT22;10137;49.406;19.484;2023-03-23T08:37:56;13.40;99.90
19952;DHT22;10137;49.406;19.484;2023-03-23T08:40:24;13.40;99.90
19952;DHT22;10137;49.406;19.484;2023-03-23T08:42:53;13.30;99.90
19952;DHT22;10137;49.406;19.484;2023-03-23T08:45:22;13.30;99.90
19952;DHT22;10137;49.406;19.484;2023-03-23T08:47:55;13.20;99.90
19952;DHT22;10137;49.406;19.484;2023-03-23T08:50:27;13.10;99.90
19952;DHT22;10137;49.406;19.484;2023-03-23T08:52:57;13.20;99.90
19952;DHT22;10137;49.406;19.484;2023-03-23T08:55:24;13.10;99.90
19952;DHT22;10137;49.406;19.484;2023-03-23T08:57:54;13.10;99.90
19952;DHT22;10137;49.406;19.484;2023-03-23T09:00:23;13.00;99.90
19952;DHT22;10137;49.406;19.484;2023-03-23T09:02:54;13.00;99.90
19952;DHT22;10137;49.406;19.484;2023-03-23T09:05:25;12.90;99.90
19952;DHT22;10137;49.406;19.484;2023-03-23T09:07:55;13.00;99.90
19952;DHT22;10137;49.406;19.484;2023-03-23T09:10:25;13.00;99.90
19952;DHT22;10137;49.406;19.484;2023-03-23T09:12:54;13.00;99.90
19952;DHT22;10137;49.406;19.484;2023-03-23T09:15:23;13.00;99.90
19952;DHT22;10137;49.406;19.484;2023-03-23T09:17:51;13.00;99.90
19952;DHT22;10137;49.406;19.484;2023-03-23T09:20:23;13.10;99.90
19952;DHT22;10137;49.406;19.484;2023-03-23T09:22:53;13.20;99.90
19952;DHT22;10137;49.406;19.484;2023-03-23T09:25:23;13.20;99.90
19952;DHT22;10137;49.406;19.484;2023-03-23T09:27:54;13.20;99.90
19952;DHT22;10137;49.406;19.484;2023-03-23T09:30:24;13.30;99.90
19952;DHT22;10137;49.406;19.484;2023-03-23T09:32:52;13.20;99.90
19952;DHT22;10137;49.406;19.484;2023-03-23T09:35:21;13.30;99.90
19952;DHT22;10137;49.406;19.484;2023-03-23T09:37:50;13.30;99.90
19952;DHT22;10137;49.406;19.484;2023-03-23T09:40:20;13.40;99.90
19952;DHT22;10137;49.406;19.484;2023-03-23T09:43:02;13.40;99.90
19952;DHT22;10137;49.406;19.484;2023-03-23T09:45:47;13.40;99.90
19952;DHT22;10137;49.406;19.484;2023-03-23T09:48:32;13.40;99.70
19952;DHT22;10137;49.406;19.484;2023-03-23T09:51:11;13.40;99.70
19952;DHT22;10137;49.406;19.484;2023-03-23T09:53:45;13.40;99.40
19952;DHT22;10137;49.406;19.484;2023-03-23T09:56:16;13.40;99.50
19952;DHT22;10137;49.406;19.484;2023-03-23T09:58:48;13.40;99.70
19952;DHT22;10137;49.406;19.484;2023-03-23T10:01:22;13.50;99.60
19952;DHT22;10137;49.406;19.484;2023-03-23T10:03:58;13.80;99.40
19952;DHT22;10137;49.406;19.484;2023-03-23T10:06:31;14.00;98.70
19952;DHT22;10137;49.406;19.484;2023-03-23T10:09:00;14.20;97.70
19952;DHT22;10137;49.406;19.484;2023-03-23T10:11:38;14.30;97.10
19952;DHT22;10137;49.406;19.484;2023-03-23T10:14:19;14.30;97.10
19952;DHT22;10137;49.406;19.484;2023-03-23T10:17:04;14.50;97.00
19952;DHT22;10137;49.406;19.484;2023-03-23T10:19:39;14.70;96.60
19952;DHT22;10137;49.406;19.484;2023-03-23T10:22:14;14.80;95.80
19952;DHT22;10137;49.406;19.484;2023-03-23T10:24:50;15.10;95.90
19952;DHT22;10137;49.406;19.484;2023-03-23T10:27:25;15.30;94.20
19952;DHT22;10137;49.406;19.484;2023-03-23T10:30:00;15.40;93.10
19952;DHT22;10137;49.406;19.484;2023-03-23T10:32:43;15.80;92.80
19952;DHT22;10137;49.406;19.484;2023-03-23T10:35:14;16.00;91.80
19952;DHT22;10137;49.406;19.484;2023-03-23T10:37:48;16.30;90.60
19952;DHT22;10137;49.406;19.484;2023-03-23T10:40:20;16.50;90.00
19952;DHT22;10137;49.406;19.484;2023-03-23T10:42:50;16.80;88.60
19952;DHT22;10137;49.406;19.484;2023-03-23T10:45:21;16.90;86.80
19952;DHT22;10137;49.406;19.484;2023-03-23T10:47:53;16.90;86.80
19952;DHT22;10137;49.406;19.484;2023-03-23T10:50:24;17.00;85.70
19952;DHT22;10137;49.406;19.484;2023-03-23T10:52:56;17.30;83.40
19952;DHT22;10137;49.406;19.484;2023-03-23T10:55:36;17.50;81.20
19952;DHT22;10137;49.406;19.484;2023-03-23T10:58:06;17.60;80.30
19952;DHT22;10137;49.406;19.484;2023-03-23T11:00:40;17.40;77.60
19952;DHT22;10137;49.406;19.484;2023-03-23T11:03:24;17.30;78.70
19952;DHT22;10137;49.406;19.484;2023-03-23T11:05:57;17.20;76.70
19952;DHT22;10137;49.406;19.484;2023-03-23T11:08:29;17.20;76.10
19952;DHT22;10137;49.406;19.484;2023-03-23T11:11:09;17.20;75.50
19952;DHT22;10137;49.406;19.484;2023-03-23T11:13:42;17.40;75.90
19952;DHT22;10137;49.406;19.484;2023-03-23T11:16:22;17.80;76.40
19952;DHT22;10137;49.406;19.484;2023-03-23T11:18:51;17.80;72.30
19952;DHT22;10137;49.406;19.484;2023-03-23T11:21:22;17.70;70.60
19952;DHT22;10137;49.406;19.484;2023-03-23T11:23:55;17.60;71.70
19952;DHT22;10137;49.406;19.484;2023-03-23T11:26:26;17.60;70.60
19952;DHT22;10137;49.406;19.484;2023-03-23T11:28:58;17.60;70.00
19952;DHT22;10137;49.406;19.484;2023-03-23T11:31:32;17.70;70.00
19952;DHT22;10137;49.406;19.484;2023-03-23T11:34:03;17.90;70.10
19952;DHT22;10137;49.406;19.484;2023-03-23T11:36:35;18.00;68.90
19952;DHT22;10137;49.406;19.484;2023-03-23T11:39:19;18.00;70.40
19952;DHT22;10137;49.406;19.484;2023-03-23T11:41:49;18.10;70.00
19952;DHT22;10137;49.406;19.484;2023-03-23T11:44:18;18.20;69.90
19952;DHT22;10137;49.406;19.484;2023-03-23T11:46:53;18.10;68.10
19952;DHT22;10137;49.406;19.484;2023-03-23T11:49:31;18.10;67.50
19952;DHT22;10137;49.406;19.484;2023-03-23T11:52:10;18.00;68.60
19952;DHT22;10137;49.406;19.484;2023-03-23T11:54:45;17.80;68.20
19952;DHT22;10137;49.406;19.484;2023-03-23T11:57:14;17.60;68.10
19952;DHT22;10137;49.406;19.484;2023-03-23T11:59:44;17.70;69.10
19952;DHT22;10137;49.406;19.484;2023-03-23T12:02:34;17.50;67.20
19952;DHT22;10137;49.406;19.484;2023-03-23T12:05:27;17.40;67.80
19952;DHT22;10137;49.406;19.484;2023-03-23T12:10:57;17.10;68.40
19952;DHT22;10137;49.406;19.484;2023-03-23T12:13:56;17.00;67.40
19952;DHT22;10137;49.406;19.484;2023-03-23T12:16:38;17.20;67.90
19952;DHT22;10137;49.406;19.484;2023-03-23T12:19:16;17.10;67.40
19952;DHT22;10137;49.406;19.484;2023-03-23T12:22:00;17.00;67.70
19952;DHT22;10137;49.406;19.484;2023-03-23T12:24:51;16.90;68.20
19952;DHT22;10137;49.406;19.484;2023-03-23T12:27:35;17.00;68.10
19952;DHT22;10137;49.406;19.484;2023-03-23T12:30:24;17.00;67.80
19952;DHT22;10137;49.406;19.484;2023-03-23T12:33:07;17.00;67.40
19952;DHT22;10137;49.406;19.484;2023-03-23T12:35:52;17.00;66.80
19952;DHT22;10137;49.406;19.484;2023-03-23T12:38:37;17.00;67.10
19952;DHT22;10137;49.406;19.484;2023-03-23T12:41:15;16.90;66.50
19952;DHT22;10137;49.406;19.484;2023-03-23T12:43:58;16.90;68.00
19952;DHT22;10137;49.406;19.484;2023-03-23T12:46:44;16.80;67.90
19952;DHT22;10137;49.406;19.484;2023-03-23T12:49:19;16.80;68.10
19952;DHT22;10137;49.406;19.484;2023-03-23T12:51:52;16.70;68.30
19952;DHT22;10137;49.406;19.484;2023-03-23T12:54:31;16.60;68.00
19952;DHT22;10137;49.406;19.484;2023-03-23T12:57:04;16.60;68.80
19952;DHT22;10137;49.406;19.484;2023-03-23T12:59:42;16.50;68.80
19952;DHT22;10137;49.406;19.484;2023-03-23T13:02:18;16.40;68.90
19952;DHT22;10137;49.406;19.484;2023-03-23T13:04:55;16.40;70.00
19952;DHT22;10137;49.406;19.484;2023-03-23T13:07:30;16.40;69.20
19952;DHT22;10137;49.406;19.484;2023-03-23T13:10:07;16.50;69.60
19952;DHT22;10137;49.406;19.484;2023-03-23T13:12:44;16.50;68.00
19952;DHT22;10137;49.406;19.484;2023-03-23T13:15:22;16.50;67.10
19952;DHT22;10137;49.406;19.484;2023-03-23T13:17:58;16.40;67.80
19952;DHT22;10137;49.406;19.484;2023-03-23T13:20:49;16.50;68.30
19952;DHT22;10137;49.406;19.484;2023-03-23T13:23:21;16.50;69.00
19952;DHT22;10137;49.406;19.484;2023-03-23T13:25:53;16.50;67.30
19952;DHT22;10137;49.406;19.484;2023-03-23T13:28:25;16.60;67.60
19952;DHT22;10137;49.406;19.484;2023-03-23T13:31:00;16.70;67.40
19952;DHT22;10137;49.406;19.484;2023-03-23T13:33:35;16.70;67.40
19952;DHT22;10137;49.406;19.484;2023-03-23T13:36:11;16.70;66.80
19952;DHT22;10137;49.406;19.484;2023-03-23T13:38:46;16.80;66.80
19952;DHT22;10137;49.406;19.484;2023-03-23T13:41:16;16.80;66.00
19952;DHT22;10137;49.406;19.484;2023-03-23T13:43:48;16.70;66.30
19952;DHT22;10137;49.406;19.484;2023-03-23T13:46:29;16.70;67.30
19952;DHT22;10137;49.406;19.484;2023-03-23T13:49:15;16.70;67.30
19952;DHT22;10137;49.406;19.484;2023-03-23T13:52:17;16.60;67.10
19952;DHT22;10137;49.406;19.484;2023-03-23T13:54:47;16.70;67.30
19952;DHT22;10137;49.406;19.484;2023-03-23T13:57:32;16.70;67.10
19952;DHT22;10137;49.406;19.484;2023-03-23T14:03:00;16.80;66.40
19952;DHT22;10137;49.406;19.484;2023-03-23T14:05:34;16.90;67.60
19952;DHT22;10137;49.406;19.484;2023-03-23T14:08:11;17.00;67.00
19952;DHT22;10137;49.406;19.484;2023-03-23T14:10:42;17.00;66.50
19952;DHT22;10137;49.406;19.484;2023-03-23T14:13:17;17.00;67.30
19952;DHT22;10137;49.406;19.484;2023-03-23T14:15:56;17.00;67.20
19952;DHT22;10137;49.406;19.484;2023-03-23T14:18:30;16.90;67.30
19952;DHT22;10137;49.406;19.484;2023-03-23T14:20:59;16.90;67.40
19952;DHT22;10137;49.406;19.484;2023-03-23T14:23:31;16.80;67.10
19952;DHT22;10137;49.406;19.484;2023-03-23T14:26:02;16.80;66.80
19952;DHT22;10137;49.406;19.484;2023-03-23T14:28:37;16.80;67.40
19952;DHT22;10137;49.406;19.484;2023-03-23T14:31:05;16.80;68.30
19952;DHT22;10137;49.406;19.484;2023-03-23T14:33:48;16.90;67.80
19952;DHT22;10137;49.406;19.484;2023-03-23T14:36:22;16.90;66.80
19952;DHT22;10137;49.406;19.484;2023-03-23T14:39:01;16.90;67.30
19952;DHT22;10137;49.406;19.484;2023-03-23T14:41:30;16.90;67.60
19952;DHT22;10137;49.406;19.484;2023-03-23T14:44:00;16.90;67.10
19952;DHT22;10137;49.406;19.484;2023-03-23T14:46:30;17.00;67.50
19952;DHT22;10137;49.406;19.484;2023-03-23T14:49:01;17.00;66.80
19952;DHT22;10137;49.406;19.484;2023-03-23T14:51:30;16.90;66.80
19952;DHT22;10137;49.406;19.484;2023-03-23T14:54:00;16.90;66.70
19952;DHT22;10137;49.406;19.484;2023-03-23T14:56:34;16.90;66.90
19952;DHT22;10137;49.406;19.484;2023-03-23T14:59:04;16.90;66.10
19952;DHT22;10137;49.406;19.484;2023-03-23T15:01:35;16.80;66.00
19952;DHT22;10137;49.406;19.484;2023-03-23T15:04:08;16.70;66.10
19952;DHT22;10137;49.406;19.484;2023-03-23T15:06:40;16.70;65.20
19952;DHT22;10137;49.406;19.484;2023-03-23T15:09:13;16.70;66.10
19952;DHT22;10137;49.406;19.484;2023-03-23T15:11:49;16.80;66.70
19952;DHT22;10137;49.406;19.484;2023-03-23T15:14:23;16.80;66.80
19952;DHT22;10137;49.406;19.484;2023-03-23T15:16:54;16.80;66.30
19952;DHT22;10137;49.406;19.484;2023-03-23T15:19:27;16.80;67.80
19952;DHT22;10137;49.406;19.484;2023-03-23T15:21:57;16.80;66.30
19952;DHT22;10137;49.406;19.484;2023-03-23T15:24:34;16.70;66.40
19952;DHT22;10137;49.406;19.484;2023-03-23T15:27:23;16.60;66.30
19952;DHT22;10137;49.406;19.484;2023-03-23T15:29:53;16.60;67.20
19952;DHT22;10137;49.406;19.484;2023-03-23T15:32:27;16.50;68.10
19952;DHT22;10137;49.406;19.484;2023-03-23T15:34:57;16.40;68.80
19952;DHT22;10137;49.406;19.484;2023-03-23T15:37:31;16.30;69.10
19952;DHT22;10137;49.406;19.484;2023-03-23T15:40:00;16.30;69.80
19952;DHT22;10137;49.406;19.484;2023-03-23T15:42:31;16.20;69.50
19952;DHT22;10137;49.406;19.484;2023-03-23T15:45:16;16.20;69.90
19952;DHT22;10137;49.406;19.484;2023-03-23T15:47:48;16.10;69.60
19952;DHT22;10137;49.406;19.484;2023-03-23T15:50:20;16.00;69.90
19952;DHT22;10137;49.406;19.484;2023-03-23T15:53:00;15.90;69.80
19952;DHT22;10137;49.406;19.484;2023-03-23T15:55:38;15.90;71.30
19952;DHT22;10137;49.406;19.484;2023-03-23T15:58:11;15.80;70.20
19952;DHT22;10137;49.406;19.484;2023-03-23T16:00:44;15.70;70.60
19952;DHT22;10137;49.406;19.484;2023-03-23T16:03:22;15.70;71.40
19952;DHT22;10137;49.406;19.484;2023-03-23T16:05:55;15.60;71.00
19952;DHT22;10137;49.406;19.484;2023-03-23T16:08:25;15.50;71.50